Marion, North Carolina
Current Conditions -  °F | °C
As of 10:35 PM on Saturday 24 Jan 2015 (Local Time) from KFQD Reporting Station
Clear Clear  
Wind Chill: 38°   Ceiling: Unl
Heat Index: 41°   Visibility: 10mi
Dew Point: 25°   Wind: 5mph
Humidity: 53%   Direction: 300°WNW
Pressure: 29.82"   Gusts: NA
Location:  35.68°N, 82.01°W
Report Text: KFQD 250335Z AUTO 30004KT 10SM CLR 05/M04 A2982 RMK AO2 T00501040
Loading
Personal Weather Stations






























Interactive Weather Map New forecast layout! Learn more

10-Day Weather Forecast

Advertisements
Track Severe Weather on mobile